KCUB/CUB METAR and TAF weather

Enter ICAO airport designator
Station Type Date Time Source
KCUB METAR 2020/01/18 20:53 UTC NOAA

KCUB 182053Z AUTO 16004KT 10SM FEW036 SCT065 BKN100 15/08 A3024 RMK AO2 SLP239 T01500083 56042


Station Type Date Time Source
KCUB Decoded METAR 2020/01/18 20:53 UTC NOAA

OWENS DOWNTOWN AIRPORT, SC, United States (KCUB) 33-58N 081-00W 56M
Jan 18, 2020 - 03:53 PM EST / 2020.01.18 2053 UTC
Wind: from the SSE (160 degrees) at 5 MPH (4 KT):0
Visibility: 10 mile(s):0
Sky conditions: mostly cloudy
Temperature: 59.0 F (15.0 C)
Dew Point: 46.9 F (8.3 C)
Relative Humidity: 64%
Pressure (altimeter): 30.24 in. Hg (1024 hPa)
Pressure tendency: 0.12 inches (4.2 hPa) lower than three hours ago
ob: KCUB 182053Z AUTO 16004KT 10SM FEW036 SCT065 BKN100 15/08 A3024 RMK AO2 SLP239 T01500083 56042
cycle: 21

Station Type Date Time Source
KCUB TAF 2020/01/18 21:12 UTC NOAA

TAF
AMD KCUB 182108Z 1821/1918 14008KT P6SM VCSH SCT025 BKN060
TEMPO 1821/1824 -SHRA BKN025
FM190000 16008KT P6SM -SHRA BKN025 OVC050 WS020/20038KT
FM190400 23010G16KT P6SM -SHRA OVC015 WS020/22045KT
FM191200 28010G18KT P6SM SCT035

Example: see airport list